This is the latest recevied weather packets stored in our database for station/object KH2PM. If no packets are shown the sender has not sent any weather packets the latest 10 day(s).
| Time | Temp. | Humidity | Pressure | Rain* | Wind** | Luminosity | Snow |
|---|---|---|---|---|---|---|---|
| 1777612204 | 15° C | 55% | 1014.2 hPa | 0 mm | - | - | - |
| 1777609204 | 14.44° C | 62% | 1013.5 hPa | 0 mm | - | - | - |
| 1777608607 | 13.89° C | 72% | 1013.6 hPa | 0 mm | - | - | - |
| 1777607704 | 13.89° C | 78% | 1013.4 hPa | 0 mm | - | - | - |
| 1777606804 | 13.89° C | 76% | 1013.1 hPa | 0 mm | - | - | - |
| 1777603504 | 14.44° C | 88% | 1012.8 hPa | 0 mm | - | - | - |
| 1777602304 | 15° C | 89% | 1012.5 hPa | 0 mm | - | - | - |
| 1777601104 | 15° C | 88% | 1012.3 hPa | 0 mm | - | - | - |
| 1777598404 | 15.56° C | 87% | 1011.4 hPa | 0 mm | - | - | - |
| 1777597505 | 15.56° C | 85% | 1011.3 hPa | 0 mm | - | - | - |
| 1777597204 | 16.11° C | 85% | 1011.1 hPa | 0 mm | - | - | - |
| 1777596604 | 16.11° C | 83% | 1011.1 hPa | 0 mm | - | - | - |
| 1777595404 | 17.22° C | 81% | 1010.8 hPa | 0 mm | - | - | - |
| 1777593903 | 18.89° C | 76% | 1010.5 hPa | 0 mm | - | - | - |
| 1777592703 | 19.44° C | 73% | 1010.3 hPa | 0 mm | - | - | - |
| 1777588204 | 22.22° C | 59% | 1009.5 hPa | 0 mm | - | - | - |
| 1777586705 | 22.22° C | 54% | 1009.3 hPa | 0 mm | - | - | - |
| 1777582204 | 22.78° C | 54% | 1009.5 hPa | 0 mm | - | - | - |
| 1777581903 | 22.22° C | 57% | 1009.4 hPa | 0 mm | - | - | - |
| 1777581603 | 22.78° C | 55% | 1009.5 hPa | 0 mm | - | - | - |
| 1777581304 | 22.78° C | 54% | 1009.6 hPa | 0 mm | - | - | - |
| 1777580404 | 22.78° C | 56% | 1009.8 hPa | 0 mm | - | - | - |
| 1777578904 | 22.22° C | 57% | 1010.1 hPa | 0 mm | - | - | - |
| 1777577103 | 22.22° C | 57% | 1010.1 hPa | 0 mm | - | - | - |
| 1777574404 | 22.78° C | 53% | 1010 hPa | 0 mm | - | - | - |
* Rain latest hour (hover to see other rain measurements)
** Current wind speed in m/s (hover to see current wind gust speed)